sensor_id;sensor_type;location;lat;lon;timestamp;pressure;altitude;pressure_sealevel;temperature;humidity
39729;BME280;25402;42.004;23.088;2022-10-30T00:02:20;98216.75;;;3.77;45.48
39729;BME280;25402;42.004;23.088;2022-10-30T00:04:51;98115.50;;;3.07;45.45
39729;BME280;25402;42.004;23.088;2022-10-30T00:07:29;98215.19;;;3.63;45.48
39729;BME280;25402;42.004;23.088;2022-10-30T00:10:21;98215.34;;;3.62;45.39
39729;BME280;25402;42.004;23.088;2022-10-30T00:12:50;98209.50;;;3.57;45.53
39729;BME280;25402;42.004;23.088;2022-10-30T00:15:26;98117.44;;;3.05;45.42
39729;BME280;25402;42.004;23.088;2022-10-30T00:17:56;98224.19;;;3.62;45.26
39729;BME280;25402;42.004;23.088;2022-10-30T00:20:27;98179.91;;;3.26;45.49
39729;BME280;25402;42.004;23.088;2022-10-30T00:23:01;98127.81;;;2.98;45.25
39729;BME280;25402;42.004;23.088;2022-10-30T00:25:31;98235.06;;;3.61;45.19
39729;BME280;25402;42.004;23.088;2022-10-30T00:28:25;98215.16;;;3.42;45.06
39729;BME280;25402;42.004;23.088;2022-10-30T00:31:08;98235.78;;;3.52;45.42
39729;BME280;25402;42.004;23.088;2022-10-30T00:34:03;98180.97;;;3.24;45.54
39729;BME280;25402;42.004;23.088;2022-10-30T00:36:58;98193.25;;;3.15;45.82
39729;BME280;25402;42.004;23.088;2022-10-30T00:40:15;98235.19;;;3.48;45.69
39729;BME280;25402;42.004;23.088;2022-10-30T00:43:26;98111.69;;;2.66;45.66
39729;BME280;25402;42.004;23.088;2022-10-30T00:46:07;98194.94;;;3.16;45.91
39729;BME280;25402;42.004;23.088;2022-10-30T00:48:42;98224.84;;;3.21;45.69
39729;BME280;25402;42.004;23.088;2022-10-30T00:51:40;98153.56;;;2.88;45.68
39729;BME280;25402;42.004;23.088;2022-10-30T00:54:19;98113.63;;;2.64;45.75
39729;BME280;25402;42.004;23.088;2022-10-30T00:57:27;98248.56;;;3.48;45.77
39729;BME280;25402;42.004;23.088;2022-10-30T01:00:06;98220.97;;;3.25;45.71
39729;BME280;25402;42.004;23.088;2022-10-30T01:05:53;98090.81;;;2.49;45.65
39729;BME280;25402;42.004;23.088;2022-10-30T01:08:35;98201.66;;;3.10;45.58
39729;BME280;25402;42.004;23.088;2022-10-30T01:11:25;98217.06;;;3.18;45.79
39729;BME280;25402;42.004;23.088;2022-10-30T01:14:32;98140.09;;;2.79;45.40
39729;BME280;25402;42.004;23.088;2022-10-30T01:55:30;98084.75;;;2.47;45.43
39729;BME280;25402;42.004;23.088;2022-10-30T02:01:47;98086.31;;;2.27;45.79
39729;BME280;25402;42.004;23.088;2022-10-30T02:49:33;98072.03;;;1.71;47.36
39729;BME280;25402;42.004;23.088;2022-10-30T02:52:26;98160.81;;;2.19;46.96
39729;BME280;25402;42.004;23.088;2022-10-30T02:56:04;98213.78;;;2.59;46.72
39729;BME280;25402;42.004;23.088;2022-10-30T02:58:39;98097.03;;;1.81;46.59
39729;BME280;25402;42.004;23.088;2022-10-30T03:01:45;98074.97;;;1.79;46.14
39729;BME280;25402;42.004;23.088;2022-10-30T03:05:00;98176.47;;;2.24;46.85
39729;BME280;25402;42.004;23.088;2022-10-30T03:08:36;98091.31;;;1.75;46.70
39729;BME280;25402;42.004;23.088;2022-10-30T03:24:02;98180.38;;;2.20;46.72
39729;BME280;25402;42.004;23.088;2022-10-30T03:26:59;98106.91;;;1.68;46.78
39729;BME280;25402;42.004;23.088;2022-10-30T03:29:36;98097.78;;;1.59;47.00
39729;BME280;25402;42.004;23.088;2022-10-30T03:35:34;98175.38;;;2.15;46.77
39729;BME280;25402;42.004;23.088;2022-10-30T03:48:23;98186.28;;;2.12;46.92
39729;BME280;25402;42.004;23.088;2022-10-30T03:51:18;98182.94;;;1.97;47.24
39729;BME280;25402;42.004;23.088;2022-10-30T03:53:57;98122.19;;;1.66;47.17
39729;BME280;25402;42.004;23.088;2022-10-30T03:56:44;98188.53;;;2.05;46.97
39729;BME280;25402;42.004;23.088;2022-10-30T03:59:46;98225.53;;;2.34;46.48
39729;BME280;25402;42.004;23.088;2022-10-30T04:02:33;98131.69;;;1.70;46.32
39729;BME280;25402;42.004;23.088;2022-10-30T04:05:16;98160.22;;;1.81;46.30
39729;BME280;25402;42.004;23.088;2022-10-30T04:08:02;98131.88;;;1.67;46.08
39729;BME280;25402;42.004;23.088;2022-10-30T04:10:37;98144.47;;;1.65;45.97
39729;BME280;25402;42.004;23.088;2022-10-30T04:14:05;98128.94;;;1.59;46.30
39729;BME280;25402;42.004;23.088;2022-10-30T04:17:11;98211.34;;;1.98;46.50
39729;BME280;25402;42.004;23.088;2022-10-30T04:20:22;98165.94;;;1.63;46.57
39729;BME280;25402;42.004;23.088;2022-10-30T04:26:36;98213.47;;;1.82;46.83
39729;BME280;25402;42.004;23.088;2022-10-30T04:39:01;98213.13;;;1.87;46.63
39729;BME280;25402;42.004;23.088;2022-10-30T04:44:59;98161.69;;;1.37;46.63
39729;BME280;25402;42.004;23.088;2022-10-30T04:50:52;98155.00;;;1.31;47.35
39729;BME280;25402;42.004;23.088;2022-10-30T04:53:50;98115.41;;;1.14;46.93
39729;BME280;25402;42.004;23.088;2022-10-30T04:57:10;98155.66;;;1.46;46.38
39729;BME280;25402;42.004;23.088;2022-10-30T04:59:47;98095.94;;;1.01;46.12
39729;BME280;25402;42.004;23.088;2022-10-30T05:02:58;98108.25;;;1.15;46.26
39729;BME280;25402;42.004;23.088;2022-10-30T05:08:38;98113.09;;;1.10;46.63
39729;BME280;25402;42.004;23.088;2022-10-30T05:12:07;98257.56;;;1.99;46.42
39729;BME280;25402;42.004;23.088;2022-10-30T05:15:04;98246.59;;;1.91;46.67
39729;BME280;25402;42.004;23.088;2022-10-30T05:18:29;98140.91;;;1.29;46.64
39729;BME280;25402;42.004;23.088;2022-10-30T05:21:14;98236.72;;;1.80;46.58
39729;BME280;25402;42.004;23.088;2022-10-30T06:20:24;98168.25;;;3.27;44.90
39729;BME280;25402;42.004;23.088;2022-10-30T06:23:34;98141.72;;;3.24;44.94
39729;BME280;25402;42.004;23.088;2022-10-30T06:26:41;98131.50;;;3.40;45.09
39729;BME280;25402;42.004;23.088;2022-10-30T06:33:29;98182.81;;;3.98;45.50
39729;BME280;25402;42.004;23.088;2022-10-30T06:39:48;98182.25;;;4.15;45.40
39729;BME280;25402;42.004;23.088;2022-10-30T06:46:31;98139.63;;;4.24;44.99
39729;BME280;25402;42.004;23.088;2022-10-30T06:50:15;98152.13;;;4.44;44.82
39729;BME280;25402;42.004;23.088;2022-10-30T06:53:38;98187.50;;;4.89;44.68
39729;BME280;25402;42.004;23.088;2022-10-30T06:56:28;98248.25;;;5.40;44.39
39729;BME280;25402;42.004;23.088;2022-10-30T06:59:37;98151.59;;;5.11;44.10
39729;BME280;25402;42.004;23.088;2022-10-30T07:02:49;98126.75;;;5.09;43.11
39729;BME280;25402;42.004;23.088;2022-10-30T07:06:26;98127.25;;;5.33;42.86
39729;BME280;25402;42.004;23.088;2022-10-30T07:09:09;98122.28;;;5.38;42.42
39729;BME280;25402;42.004;23.088;2022-10-30T10:16:16;97987.34;;;17.24;27.03
39729;BME280;25402;42.004;23.088;2022-10-30T10:18:48;97960.00;;;17.24;26.99
39729;BME280;25402;42.004;23.088;2022-10-30T10:21:26;97983.06;;;17.35;26.77
39729;BME280;25402;42.004;23.088;2022-10-30T10:23:54;97991.88;;;17.44;26.75
39729;BME280;25402;42.004;23.088;2022-10-30T10:26:30;97977.47;;;17.55;27.21
39729;BME280;25402;42.004;23.088;2022-10-30T10:32:05;97971.75;;;17.94;26.56
39729;BME280;25402;42.004;23.088;2022-10-30T10:34:49;97948.75;;;17.95;26.68
39729;BME280;25402;42.004;23.088;2022-10-30T10:37:28;97963.97;;;18.16;26.33
39729;BME280;25402;42.004;23.088;2022-10-30T10:40:15;97952.03;;;18.29;26.30
39729;BME280;25402;42.004;23.088;2022-10-30T10:42:54;97928.97;;;18.18;25.98
39729;BME280;25402;42.004;23.088;2022-10-30T10:45:29;97954.06;;;18.40;25.91
39729;BME280;25402;42.004;23.088;2022-10-30T10:48:18;97929.19;;;18.42;25.88
39729;BME280;25402;42.004;23.088;2022-10-30T10:50:52;97936.00;;;18.57;25.57
39729;BME280;25402;42.004;23.088;2022-10-30T10:53:27;97892.06;;;18.46;25.60
39729;BME280;25402;42.004;23.088;2022-10-30T10:55:58;97924.09;;;18.82;25.67
39729;BME280;25402;42.004;23.088;2022-10-30T10:58:30;97924.38;;;18.92;25.25
39729;BME280;25402;42.004;23.088;2022-10-30T11:00:59;97901.66;;;18.55;25.08
39729;BME280;25402;42.004;23.088;2022-10-30T11:03:34;97919.38;;;18.89;24.98
39729;BME280;25402;42.004;23.088;2022-10-30T11:06:13;97917.91;;;19.04;24.91
39729;BME280;25402;42.004;23.088;2022-10-30T11:08:44;97906.06;;;19.22;24.75
39729;BME280;25402;42.004;23.088;2022-10-30T11:11:11;97904.63;;;19.20;24.86
39729;BME280;25402;42.004;23.088;2022-10-30T11:13:40;97903.84;;;19.42;24.44
39729;BME280;25402;42.004;23.088;2022-10-30T11:16:16;97895.31;;;19.51;24.06
39729;BME280;25402;42.004;23.088;2022-10-30T11:18:47;97898.66;;;19.64;23.75
39729;BME280;25402;42.004;23.088;2022-10-30T11:21:21;97892.50;;;19.81;23.52
39729;BME280;25402;42.004;23.088;2022-10-30T11:23:49;97855.81;;;19.63;23.60
39729;BME280;25402;42.004;23.088;2022-10-30T11:26:29;97883.06;;;19.88;23.41
39729;BME280;25402;42.004;23.088;2022-10-30T11:29:01;97876.72;;;19.99;23.50
39729;BME280;25402;42.004;23.088;2022-10-30T11:31:31;97867.91;;;20.09;23.23
39729;BME280;25402;42.004;23.088;2022-10-30T11:34:24;97866.84;;;20.33;23.09
39729;BME280;25402;42.004;23.088;2022-10-30T11:36:54;97831.94;;;20.22;22.78
39729;BME280;25402;42.004;23.088;2022-10-30T11:39:23;97855.56;;;20.46;22.45
39729;BME280;25402;42.004;23.088;2022-10-30T11:41:55;97824.53;;;20.34;22.57
39729;BME280;25402;42.004;23.088;2022-10-30T11:44:28;97847.19;;;20.53;22.63
39729;BME280;25402;42.004;23.088;2022-10-30T11:46:56;97850.56;;;20.55;22.68
39729;BME280;25402;42.004;23.088;2022-10-30T11:49:35;97841.19;;;20.68;22.40
39729;BME280;25402;42.004;23.088;2022-10-30T11:52:03;97834.00;;;20.67;22.57
39729;BME280;25402;42.004;23.088;2022-10-30T11:54:35;97824.69;;;20.68;22.59
39729;BME280;25402;42.004;23.088;2022-10-30T11:57:20;97822.41;;;20.76;22.14
39729;BME280;25402;42.004;23.088;2022-10-30T11:59:50;97818.75;;;20.88;22.08
39729;BME280;25402;42.004;23.088;2022-10-30T12:02:23;97822.47;;;20.93;22.22
39729;BME280;25402;42.004;23.088;2022-10-30T12:05:00;97813.31;;;21.04;21.97
39729;BME280;25402;42.004;23.088;2022-10-30T12:07:29;97810.94;;;21.08;22.04
39729;BME280;25402;42.004;23.088;2022-10-30T12:09:57;97805.66;;;21.06;22.22
39729;BME280;25402;42.004;23.088;2022-10-30T12:12:27;97796.84;;;21.21;21.67
39729;BME280;25402;42.004;23.088;2022-10-30T12:15:07;97788.34;;;21.23;21.35
39729;BME280;25402;42.004;23.088;2022-10-30T12:17:37;97793.00;;;21.22;21.77
39729;BME280;25402;42.004;23.088;2022-10-30T12:20:12;97787.00;;;21.25;21.84
39729;BME280;25402;42.004;23.088;2022-10-30T12:22:39;97783.84;;;21.33;21.42
39729;BME280;25402;42.004;23.088;2022-10-30T12:25:16;97778.50;;;21.43;21.55
39729;BME280;25402;42.004;23.088;2022-10-30T12:27:46;97776.66;;;21.32;21.48
39729;BME280;25402;42.004;23.088;2022-10-30T12:30:16;97780.75;;;21.46;21.30
39729;BME280;25402;42.004;23.088;2022-10-30T12:32:47;97771.53;;;21.53;21.02
39729;BME280;25402;42.004;23.088;2022-10-30T12:35:24;97771.19;;;21.66;20.93
39729;BME280;25402;42.004;23.088;2022-10-30T12:37:56;97768.09;;;21.62;21.08
39729;BME280;25402;42.004;23.088;2022-10-30T12:40:27;97762.00;;;21.60;21.31
39729;BME280;25402;42.004;23.088;2022-10-30T12:43:00;97760.66;;;21.63;21.11
39729;BME280;25402;42.004;23.088;2022-10-30T12:45:31;97756.31;;;21.67;20.77
39729;BME280;25402;42.004;23.088;2022-10-30T12:48:06;97761.91;;;21.72;21.01
39729;BME280;25402;42.004;23.088;2022-10-30T12:50:42;97755.38;;;21.78;20.95
39729;BME280;25402;42.004;23.088;2022-10-30T12:53:23;97754.28;;;21.79;20.73
39729;BME280;25402;42.004;23.088;2022-10-30T12:55:55;97751.91;;;21.66;21.01
39729;BME280;25402;42.004;23.088;2022-10-30T12:58:32;97745.56;;;21.65;20.50
39729;BME280;25402;42.004;23.088;2022-10-30T13:01:08;97740.31;;;21.64;20.59
39729;BME280;25402;42.004;23.088;2022-10-30T13:03:41;97725.31;;;21.55;20.37
39729;BME280;25402;42.004;23.088;2022-10-30T13:06:16;97738.22;;;21.71;20.77
39729;BME280;25402;42.004;23.088;2022-10-30T13:08:57;97737.19;;;21.77;20.28
39729;BME280;25402;42.004;23.088;2022-10-30T13:11:35;97730.22;;;21.69;20.67
39729;BME280;25402;42.004;23.088;2022-10-30T13:14:08;97725.47;;;21.65;20.62
39729;BME280;25402;42.004;23.088;2022-10-30T13:16:37;97729.28;;;21.64;20.39
39729;BME280;25402;42.004;23.088;2022-10-30T13:19:05;97722.13;;;21.63;20.54
39729;BME280;25402;42.004;23.088;2022-10-30T13:21:42;97716.28;;;21.59;20.33
39729;BME280;25402;42.004;23.088;2022-10-30T13:24:17;97720.13;;;21.58;20.89
39729;BME280;25402;42.004;23.088;2022-10-30T13:26:51;97717.34;;;21.41;20.55
39729;BME280;25402;42.004;23.088;2022-10-30T13:29:27;97701.16;;;21.23;20.66
39729;BME280;25402;42.004;23.088;2022-10-30T13:32:06;97716.63;;;21.29;20.79
39729;BME280;25402;42.004;23.088;2022-10-30T13:34:46;97722.56;;;21.21;20.92
39729;BME280;25402;42.004;23.088;2022-10-30T13:37:23;97701.22;;;21.11;21.20
39729;BME280;25402;42.004;23.088;2022-10-30T13:40:01;97720.47;;;21.11;21.33
39729;BME280;25402;42.004;23.088;2022-10-30T13:42:46;97718.63;;;21.00;21.55
39729;BME280;25402;42.004;23.088;2022-10-30T13:45:31;97715.97;;;20.89;21.42
39729;BME280;25402;42.004;23.088;2022-10-30T13:48:10;97706.94;;;20.76;21.37
39729;BME280;25402;42.004;23.088;2022-10-30T13:51:01;97694.56;;;20.62;21.50
39729;BME280;25402;42.004;23.088;2022-10-30T13:53:37;97708.56;;;20.61;21.54
39729;BME280;25402;42.004;23.088;2022-10-30T13:56:06;97704.88;;;20.55;21.61
39729;BME280;25402;42.004;23.088;2022-10-30T13:58:39;97711.94;;;20.51;21.61
39729;BME280;25402;42.004;23.088;2022-10-30T14:01:15;97702.53;;;20.47;21.43
39729;BME280;25402;42.004;23.088;2022-10-30T14:03:48;97701.25;;;20.38;21.60
39729;BME280;25402;42.004;23.088;2022-10-30T14:06:29;97705.94;;;20.37;21.65
39729;BME280;25402;42.004;23.088;2022-10-30T14:09:07;97699.84;;;20.24;20.96
39729;BME280;25402;42.004;23.088;2022-10-30T14:11:38;97710.06;;;20.11;21.04
39729;BME280;25402;42.004;23.088;2022-10-30T14:14:24;97707.91;;;20.13;20.85
39729;BME280;25402;42.004;23.088;2022-10-30T14:17:09;97706.59;;;20.04;21.45
39729;BME280;25402;42.004;23.088;2022-10-30T14:22:36;97696.78;;;19.80;21.40
39729;BME280;25402;42.004;23.088;2022-10-30T14:25:13;97710.03;;;19.71;21.43
39729;BME280;25402;42.004;23.088;2022-10-30T14:27:41;97699.03;;;19.60;21.45
39729;BME280;25402;42.004;23.088;2022-10-30T14:30:17;97702.97;;;19.52;21.50
39729;BME280;25402;42.004;23.088;2022-10-30T14:32:48;97700.47;;;19.27;21.84
39729;BME280;25402;42.004;23.088;2022-10-30T14:35:42;97695.38;;;19.19;21.78
39729;BME280;25402;42.004;23.088;2022-10-30T14:38:24;97686.09;;;18.90;22.18
39729;BME280;25402;42.004;23.088;2022-10-30T14:41:12;97682.44;;;18.85;22.32
39729;BME280;25402;42.004;23.088;2022-10-30T14:43:46;97699.81;;;18.79;22.44
39729;BME280;25402;42.004;23.088;2022-10-30T14:46:21;97703.97;;;18.69;22.94
39729;BME280;25402;42.004;23.088;2022-10-30T14:48:58;97686.66;;;18.57;23.09
39729;BME280;25402;42.004;23.088;2022-10-30T14:51:32;97693.06;;;18.51;23.65
39729;BME280;25402;42.004;23.088;2022-10-30T14:54:05;97691.09;;;18.40;24.17
39729;BME280;25402;42.004;23.088;2022-10-30T14:56:44;97693.78;;;18.28;24.18
39729;BME280;25402;42.004;23.088;2022-10-30T14:59:21;97691.59;;;18.19;24.39
39729;BME280;25402;42.004;23.088;2022-10-30T15:02:02;97681.53;;;18.01;24.76
39729;BME280;25402;42.004;23.088;2022-10-30T15:04:43;97650.53;;;17.70;25.23
39729;BME280;25402;42.004;23.088;2022-10-30T15:07:23;97689.13;;;17.81;25.32
39729;BME280;25402;42.004;23.088;2022-10-30T15:10:01;97686.16;;;17.64;25.67
39729;BME280;25402;42.004;23.088;2022-10-30T15:13:06;97686.75;;;17.48;26.18
39729;BME280;25402;42.004;23.088;2022-10-30T15:15:35;97690.06;;;17.31;26.45
39729;BME280;25402;42.004;23.088;2022-10-30T15:18:07;97693.34;;;17.22;26.80
39729;BME280;25402;42.004;23.088;2022-10-30T15:20:36;97686.53;;;17.06;27.03
39729;BME280;25402;42.004;23.088;2022-10-30T15:23:08;97687.47;;;16.93;27.33
39729;BME280;25402;42.004;23.088;2022-10-30T15:25:45;97684.47;;;16.77;27.94
39729;BME280;25402;42.004;23.088;2022-10-30T15:28:19;97688.59;;;16.61;28.01
39729;BME280;25402;42.004;23.088;2022-10-30T15:31:03;97665.47;;;16.25;27.85
39729;BME280;25402;42.004;23.088;2022-10-30T15:33:34;97684.00;;;16.17;28.33
39729;BME280;25402;42.004;23.088;2022-10-30T15:36:13;97665.28;;;15.82;28.39
39729;BME280;25402;42.004;23.088;2022-10-30T15:38:42;97683.56;;;15.75;28.86
39729;BME280;25402;42.004;23.088;2022-10-30T15:41:10;97695.59;;;15.48;29.20
39729;BME280;25402;42.004;23.088;2022-10-30T15:43:42;97715.72;;;15.47;29.30
39729;BME280;25402;42.004;23.088;2022-10-30T15:46:10;97706.94;;;15.38;29.32
39729;BME280;25402;42.004;23.088;2022-10-30T15:48:39;97707.19;;;15.17;29.67
39729;BME280;25402;42.004;23.088;2022-10-30T15:51:12;97699.25;;;15.09;29.79
39729;BME280;25402;42.004;23.088;2022-10-30T15:53:45;97682.03;;;14.82;29.43
39729;BME280;25402;42.004;23.088;2022-10-30T15:56:17;97717.63;;;14.61;31.26
39729;BME280;25402;42.004;23.088;2022-10-30T15:58:49;97657.44;;;14.22;30.96
39729;BME280;25402;42.004;23.088;2022-10-30T16:01:26;97672.06;;;14.08;31.20
39729;BME280;25402;42.004;23.088;2022-10-30T16:03:56;97672.16;;;13.67;31.72
39729;BME280;25402;42.004;23.088;2022-10-30T16:06:26;97740.88;;;13.96;32.28
39729;BME280;25402;42.004;23.088;2022-10-30T16:08:53;97738.78;;;13.98;31.93
39729;BME280;25402;42.004;23.088;2022-10-30T16:11:21;97732.28;;;13.92;31.92
39729;BME280;25402;42.004;23.088;2022-10-30T16:13:51;97675.97;;;13.45;32.24
39729;BME280;25402;42.004;23.088;2022-10-30T16:16:21;97734.69;;;13.74;32.36
39729;BME280;25402;42.004;23.088;2022-10-30T16:18:49;97739.28;;;13.67;32.45
39729;BME280;25402;42.004;23.088;2022-10-30T16:21:21;97659.28;;;13.13;32.23
39729;BME280;25402;42.004;23.088;2022-10-30T16:23:51;97743.91;;;13.45;32.79
39729;BME280;25402;42.004;23.088;2022-10-30T16:26:25;97687.53;;;12.91;33.20
39729;BME280;25402;42.004;23.088;2022-10-30T16:28:58;97700.38;;;12.76;33.19
39729;BME280;25402;42.004;23.088;2022-10-30T16:31:30;97719.38;;;12.76;33.29
39729;BME280;25402;42.004;23.088;2022-10-30T16:33:59;97706.22;;;12.73;33.15
39729;BME280;25402;42.004;23.088;2022-10-30T16:36:26;97736.72;;;12.60;33.95
39729;BME280;25402;42.004;23.088;2022-10-30T16:38:54;97678.16;;;12.23;33.94
39729;BME280;25402;42.004;23.088;2022-10-30T16:41:31;97725.41;;;12.14;34.37
39729;BME280;25402;42.004;23.088;2022-10-30T16:44:15;97699.75;;;11.80;34.79
39729;BME280;25402;42.004;23.088;2022-10-30T16:46:47;97718.84;;;11.87;34.97
39729;BME280;25402;42.004;23.088;2022-10-30T16:49:18;97777.25;;;12.40;34.15
39729;BME280;25402;42.004;23.088;2022-10-30T16:51:46;97732.66;;;12.07;34.50
39729;BME280;25402;42.004;23.088;2022-10-30T16:54:19;97777.50;;;12.45;34.45
39729;BME280;25402;42.004;23.088;2022-10-30T16:56:47;97782.03;;;12.38;34.50
39729;BME280;25402;42.004;23.088;2022-10-30T16:59:27;97749.63;;;12.15;34.67
39729;BME280;25402;42.004;23.088;2022-10-30T17:01:59;97800.25;;;12.44;34.65
39729;BME280;25402;42.004;23.088;2022-10-30T17:04:30;97806.88;;;12.57;34.17
39729;BME280;25402;42.004;23.088;2022-10-30T17:07:15;97769.97;;;12.05;34.68
39729;BME280;25402;42.004;23.088;2022-10-30T17:09:48;97749.84;;;11.85;33.91
39729;BME280;25402;42.004;23.088;2022-10-30T17:12:21;97797.63;;;12.00;34.21
39729;BME280;25402;42.004;23.088;2022-10-30T17:14:52;97761.28;;;11.95;34.43
39729;BME280;25402;42.004;23.088;2022-10-30T17:17:26;97784.03;;;12.15;34.48
39729;BME280;25402;42.004;23.088;2022-10-30T17:19:56;97805.47;;;12.25;34.55
39729;BME280;25402;42.004;23.088;2022-10-30T17:22:25;97798.09;;;12.04;34.62
39729;BME280;25402;42.004;23.088;2022-10-30T17:24:52;97752.03;;;11.74;34.86
39729;BME280;25402;42.004;23.088;2022-10-30T17:27:29;97773.91;;;11.88;34.92
39729;BME280;25402;42.004;23.088;2022-10-30T17:29:59;97804.84;;;11.64;35.57
39729;BME280;25402;42.004;23.088;2022-10-30T17:32:26;97807.44;;;11.57;36.15
39729;BME280;25402;42.004;23.088;2022-10-30T17:34:58;97768.19;;;11.38;36.25
39729;BME280;25402;42.004;23.088;2022-10-30T17:37:29;97795.75;;;11.42;36.42
39729;BME280;25402;42.004;23.088;2022-10-30T17:39:59;97769.00;;;11.24;36.50
39729;BME280;25402;42.004;23.088;2022-10-30T17:42:29;97807.91;;;11.46;36.42
39729;BME280;25402;42.004;23.088;2022-10-30T17:44:59;97804.53;;;11.44;36.44
39729;BME280;25402;42.004;23.088;2022-10-30T17:47:28;97828.94;;;11.59;36.42
39729;BME280;25402;42.004;23.088;2022-10-30T17:49:57;97824.19;;;11.23;37.34
39729;BME280;25402;42.004;23.088;2022-10-30T17:52:31;97837.69;;;11.31;37.10
39729;BME280;25402;42.004;23.088;2022-10-30T17:55:00;97770.44;;;10.97;37.04
39729;BME280;25402;42.004;23.088;2022-10-30T17:57:29;97767.44;;;10.92;37.47
39729;BME280;25402;42.004;23.088;2022-10-30T17:59:56;97808.50;;;11.19;37.23
39729;BME280;25402;42.004;23.088;2022-10-30T18:02:26;97834.69;;;11.03;38.05
39729;BME280;25402;42.004;23.088;2022-10-30T18:04:55;97817.69;;;10.87;38.53
39729;BME280;25402;42.004;23.088;2022-10-30T18:07:24;97818.19;;;10.90;38.33
39729;BME280;25402;42.004;23.088;2022-10-30T18:09:55;97762.88;;;10.47;38.17
39729;BME280;25402;42.004;23.088;2022-10-30T18:12:23;97776.16;;;10.57;38.02
39729;BME280;25402;42.004;23.088;2022-10-30T18:14:52;97789.16;;;10.84;37.91
39729;BME280;25402;42.004;23.088;2022-10-30T18:17:20;97755.94;;;10.53;37.50
39729;BME280;25402;42.004;23.088;2022-10-30T18:19:53;97841.25;;;11.09;37.52
39729;BME280;25402;42.004;23.088;2022-10-30T18:22:22;97791.25;;;10.97;36.96
39729;BME280;25402;42.004;23.088;2022-10-30T18:24:51;97787.66;;;10.82;37.58
39729;BME280;25402;42.004;23.088;2022-10-30T18:27:19;97821.66;;;11.22;37.05
39729;BME280;25402;42.004;23.088;2022-10-30T18:29:50;97707.63;;;10.41;37.17
39729;BME280;25402;42.004;23.088;2022-10-30T18:32:29;97817.25;;;10.83;37.82
39729;BME280;25402;42.004;23.088;2022-10-30T18:34:58;97793.13;;;10.73;37.71
39729;BME280;25402;42.004;23.088;2022-10-30T18:37:28;97835.06;;;11.00;37.76
39729;BME280;25402;42.004;23.088;2022-10-30T18:39:59;97831.09;;;11.11;37.73
39729;BME280;25402;42.004;23.088;2022-10-30T18:42:28;97759.66;;;10.52;37.75
39729;BME280;25402;42.004;23.088;2022-10-30T18:45:04;97772.25;;;10.59;38.02
39729;BME280;25402;42.004;23.088;2022-10-30T18:47:47;97811.88;;;10.75;38.23
39729;BME280;25402;42.004;23.088;2022-10-30T18:50:23;97831.81;;;10.82;38.10
39729;BME280;25402;42.004;23.088;2022-10-30T18:52:56;97806.53;;;10.67;38.09
39729;BME280;25402;42.004;23.088;2022-10-30T18:55:31;97795.84;;;10.51;38.32
39729;BME280;25402;42.004;23.088;2022-10-30T18:58:09;97797.91;;;10.40;38.32
39729;BME280;25402;42.004;23.088;2022-10-30T19:00:39;97784.28;;;10.34;38.63
39729;BME280;25402;42.004;23.088;2022-10-30T19:03:10;97833.16;;;10.55;38.58
39729;BME280;25402;42.004;23.088;2022-10-30T19:05:52;97861.97;;;10.71;38.42
39729;BME280;25402;42.004;23.088;2022-10-30T19:08:20;97827.63;;;10.49;38.67
39729;BME280;25402;42.004;23.088;2022-10-30T19:10:54;97802.00;;;9.97;39.38
39729;BME280;25402;42.004;23.088;2022-10-30T19:13:27;97855.72;;;10.39;39.17
39729;BME280;25402;42.004;23.088;2022-10-30T19:15:59;97825.09;;;10.16;39.18
39729;BME280;25402;42.004;23.088;2022-10-30T19:18:32;97843.81;;;10.26;39.47
39729;BME280;25402;42.004;23.088;2022-10-30T19:21:21;97821.94;;;10.04;39.20
39729;BME280;25402;42.004;23.088;2022-10-30T19:24:12;97827.97;;;10.15;39.15
39729;BME280;25402;42.004;23.088;2022-10-30T19:26:55;97860.88;;;10.26;39.29
39729;BME280;25402;42.004;23.088;2022-10-30T19:29:30;97782.72;;;9.69;39.35
39729;BME280;25402;42.004;23.088;2022-10-30T19:32:05;97785.59;;;9.68;39.36
39729;BME280;25402;42.004;23.088;2022-10-30T19:34:40;97842.06;;;9.94;39.52
39729;BME280;25402;42.004;23.088;2022-10-30T19:37:23;97775.41;;;9.31;40.05
39729;BME280;25402;42.004;23.088;2022-10-30T19:40:22;97784.69;;;9.12;40.56
39729;BME280;25402;42.004;23.088;2022-10-30T19:46:15;97715.78;;;8.77;40.58
39729;BME280;25402;42.004;23.088;2022-10-30T19:55:10;97838.13;;;9.49;40.72
39729;BME280;25402;42.004;23.088;2022-10-30T19:57:38;97856.03;;;9.58;40.86
39729;BME280;25402;42.004;23.088;2022-10-30T20:00:18;97763.44;;;9.01;40.77
39729;BME280;25402;42.004;23.088;2022-10-30T20:02:55;97794.31;;;9.15;41.17
39729;BME280;25402;42.004;23.088;2022-10-30T20:05:27;97869.34;;;9.68;40.97
39729;BME280;25402;42.004;23.088;2022-10-30T20:08:03;97828.41;;;9.24;41.05
39729;BME280;25402;42.004;23.088;2022-10-30T20:10:39;97797.50;;;9.02;41.24
39729;BME280;25402;42.004;23.088;2022-10-30T20:13:15;97800.06;;;8.95;41.23
39729;BME280;25402;42.004;23.088;2022-10-30T20:15:57;97751.34;;;8.56;41.72
39729;BME280;25402;42.004;23.088;2022-10-30T20:18:41;97882.53;;;9.30;41.70
39729;BME280;25402;42.004;23.088;2022-10-30T20:21:13;97844.06;;;9.04;41.80
39729;BME280;25402;42.004;23.088;2022-10-30T20:23:59;97805.31;;;8.81;41.86
39729;BME280;25402;42.004;23.088;2022-10-30T20:29:45;97832.44;;;8.87;41.57
39729;BME280;25402;42.004;23.088;2022-10-30T20:32:25;97827.72;;;8.81;41.74
39729;BME280;25402;42.004;23.088;2022-10-30T20:35:36;97873.59;;;9.14;41.68
39729;BME280;25402;42.004;23.088;2022-10-30T20:38:32;97759.91;;;8.36;41.50
39729;BME280;25402;42.004;23.088;2022-10-30T20:41:16;97803.25;;;8.58;41.58
39729;BME280;25402;42.004;23.088;2022-10-30T20:44:07;97803.59;;;8.47;41.51
39729;BME280;25402;42.004;23.088;2022-10-30T20:51:01;97780.13;;;8.23;41.81